createdAt,value
2022-12-12T00:01:18.915Z,14.48
2022-12-12T00:06:21.615Z,15.67
2022-12-12T00:11:24.084Z,13.98
2022-12-12T00:16:26.241Z,14.73
2022-12-12T00:21:29.604Z,13.90
2022-12-12T00:26:33.796Z,15.20
2022-12-12T00:31:35.596Z,15.05
2022-12-12T00:36:37.719Z,14.10
2022-12-12T00:41:39.619Z,14.80
2022-12-12T00:46:42.481Z,14.60
2022-12-12T00:51:45.134Z,14.77
2022-12-12T00:56:46.825Z,13.85
2022-12-12T01:01:48.968Z,13.88
2022-12-12T01:06:51.114Z,15.82
2022-12-12T01:11:52.781Z,15.35
2022-12-12T01:16:54.419Z,14.70
2022-12-12T01:21:56.243Z,14.45
2022-12-12T01:26:57.954Z,15.98
2022-12-12T01:31:59.667Z,15.05
2022-12-12T01:37:01.371Z,15.45
2022-12-12T01:42:03.154Z,15.80
2022-12-12T01:47:04.891Z,14.52
2022-12-12T01:52:11.071Z,13.57
2022-12-12T01:57:18.192Z,14.82
2022-12-12T02:02:20.144Z,14.02
2022-12-12T02:07:21.913Z,14.73
2022-12-12T02:12:23.644Z,13.38
2022-12-12T02:17:43.794Z,14.63
2022-12-12T02:22:47.525Z,15.52
2022-12-12T02:28:13.879Z,13.68
2022-12-12T02:33:21.738Z,13.27
2022-12-12T02:38:31.413Z,14.02
2022-12-12T02:43:43.613Z,14.75
2022-12-12T02:48:54.154Z,14.85
2022-12-12T02:53:58.197Z,13.97
2022-12-12T02:59:00.130Z,14.18
2022-12-12T03:04:37.074Z,13.85
2022-12-12T03:10:00.724Z,14.07
2022-12-12T03:15:12.167Z,12.43
2022-12-12T03:20:33.182Z,14.27
2022-12-12T03:25:44.389Z,14.00
2022-12-12T03:36:13.467Z,12.73
2022-12-12T03:41:20.463Z,13.40
2022-12-12T03:46:36.295Z,13.77
2022-12-12T03:51:43.611Z,14.15
2022-12-12T03:56:54.575Z,13.50
2022-12-12T04:02:14.561Z,14.50
2022-12-12T04:07:24.718Z,14.18
2022-12-12T04:12:58.627Z,14.15
2022-12-12T04:18:19.277Z,13.80
2022-12-12T04:23:40.113Z,13.57
2022-12-12T04:28:48.207Z,13.68
2022-12-12T04:33:53.078Z,14.05
2022-12-12T04:38:56.894Z,13.95
2022-12-12T04:44:02.056Z,13.60
2022-12-12T04:49:10.807Z,14.23
2022-12-12T04:54:35.920Z,14.15
2022-12-12T04:59:38.345Z,13.95
2022-12-12T05:04:52.647Z,12.90
2022-12-12T05:09:54.550Z,14.43
2022-12-12T05:14:56.259Z,17.05
2022-12-12T05:19:58.707Z,14.00
2022-12-12T05:25:00.491Z,14.25
2022-12-12T05:30:02.408Z,13.77
2022-12-12T05:35:05.044Z,28.45
2022-12-12T05:40:08.958Z,18.90
2022-12-12T05:45:12.005Z,18.30
2022-12-12T05:50:14.074Z,19.25
2022-12-12T05:55:16.018Z,18.00
2022-12-12T06:00:18.128Z,16.25
2022-12-12T06:05:19.945Z,16.10
2022-12-12T06:10:21.695Z,16.73
2022-12-12T06:15:23.424Z,18.35
2022-12-12T06:20:25.168Z,17.95
2022-12-12T06:25:26.864Z,16.00
2022-12-12T06:30:29.024Z,16.20
2022-12-12T06:35:30.821Z,15.02
2022-12-12T06:40:32.579Z,15.10
2022-12-12T06:45:34.323Z,16.20
2022-12-12T06:50:40.154Z,16.10
2022-12-12T06:55:43.948Z,16.17
2022-12-12T07:00:49.962Z,21.65
2022-12-12T07:05:51.708Z,20.17
2022-12-12T07:10:53.909Z,21.90
2022-12-12T07:15:56.073Z,18.65
2022-12-12T07:20:57.878Z,19.90
2022-12-12T07:26:03.310Z,19.10
2022-12-12T07:31:10.061Z,19.65
2022-12-12T07:36:16.364Z,16.65
2022-12-12T07:41:20.331Z,18.77
2022-12-12T07:46:25.799Z,18.85
2022-12-12T07:51:27.691Z,22.17
2022-12-12T07:56:29.468Z,25.40
2022-12-12T08:01:31.283Z,19.05
2022-12-12T08:06:32.993Z,19.50
2022-12-12T08:11:35.004Z,19.33
2022-12-12T08:16:36.760Z,19.00
2022-12-12T08:21:38.553Z,16.65
2022-12-12T08:26:40.661Z,17.45
2022-12-12T08:31:42.777Z,19.95
2022-12-12T08:36:45.239Z,18.15
2022-12-12T08:41:55.298Z,18.65
2022-12-12T08:46:57.259Z,18.52
2022-12-12T08:51:59.055Z,18.88
2022-12-12T08:57:00.712Z,20.90
2022-12-12T09:02:02.703Z,17.33
2022-12-12T09:07:08.417Z,19.90
2022-12-12T09:12:10.548Z,20.45
2022-12-12T09:17:12.265Z,21.20
2022-12-12T09:22:13.934Z,18.40
2022-12-12T09:27:15.738Z,19.67
2022-12-12T09:32:22.735Z,19.65
2022-12-12T09:37:27.548Z,18.85
2022-12-12T09:42:33.754Z,19.02
2022-12-12T09:47:51.469Z,19.95
2022-12-12T09:52:56.805Z,18.08
2022-12-12T09:58:34.102Z,18.95
2022-12-12T10:04:17.386Z,16.15
2022-12-12T10:09:37.184Z,16.70
2022-12-12T10:14:46.391Z,17.08
2022-12-12T10:19:59.285Z,16.73
2022-12-12T10:25:24.828Z,15.65
2022-12-12T10:30:30.584Z,16.17
2022-12-12T10:36:00.877Z,14.52
2022-12-12T10:41:49.715Z,13.98
2022-12-12T10:47:02.734Z,16.67
2022-12-12T10:52:11.515Z,15.20
2022-12-12T10:57:20.884Z,14.70
2022-12-12T11:02:28.226Z,16.85
2022-12-12T11:07:30.217Z,13.38
2022-12-12T11:12:35.318Z,12.02
2022-12-12T11:17:37.057Z,13.23
2022-12-12T11:22:39.689Z,13.48
2022-12-12T11:27:41.856Z,13.65
2022-12-12T11:32:48.333Z,14.68
2022-12-12T11:37:54.309Z,18.52
2022-12-12T11:43:14.818Z,14.88
2022-12-12T11:49:04.210Z,13.60
2022-12-12T11:54:31.149Z,13.05
2022-12-12T11:59:57.122Z,13.80
2022-12-12T12:05:40.816Z,12.60
2022-12-12T12:11:10.238Z,13.55
2022-12-12T12:16:26.000Z,15.00
2022-12-12T12:21:27.718Z,13.35
2022-12-12T12:26:47.530Z,12.73
2022-12-12T12:32:12.118Z,10.88
2022-12-12T12:37:29.873Z,11.38
2022-12-12T12:43:25.688Z,11.05
2022-12-12T12:48:41.307Z,10.23
2022-12-12T12:53:50.097Z,11.88
2022-12-12T12:58:54.382Z,11.70
2022-12-12T13:04:03.181Z,10.73
2022-12-12T13:09:13.995Z,9.82
2022-12-12T13:14:35.803Z,9.30
2022-12-12T13:19:45.347Z,10.52
2022-12-12T13:25:00.062Z,9.80
2022-12-12T13:30:19.435Z,9.30
2022-12-12T13:35:45.894Z,10.68
2022-12-12T13:41:06.501Z,11.05
2022-12-12T13:46:24.571Z,10.18
2022-12-12T13:51:31.900Z,10.40
2022-12-12T13:56:45.262Z,10.40
2022-12-12T14:01:47.174Z,11.85
2022-12-12T14:07:03.009Z,12.70
2022-12-12T14:12:06.998Z,13.30
2022-12-12T14:17:21.774Z,12.05
2022-12-12T14:22:38.799Z,12.13
2022-12-12T14:27:49.323Z,11.32
2022-12-12T14:33:04.561Z,11.07
2022-12-12T14:38:33.921Z,13.38
2022-12-12T14:43:40.709Z,12.10
2022-12-12T14:48:45.465Z,13.70
2022-12-12T14:53:50.580Z,27.20
2022-12-12T14:59:04.504Z,11.18
2022-12-12T15:04:11.202Z,10.70
2022-12-12T15:09:31.889Z,8.82
2022-12-12T15:14:35.480Z,11.18
2022-12-12T15:20:06.772Z,10.48
2022-12-12T15:25:19.091Z,9.90
2022-12-12T15:30:37.928Z,10.13
2022-12-12T15:35:41.605Z,9.38
2022-12-12T15:40:56.943Z,11.15
2022-12-12T15:46:02.689Z,9.85
2022-12-12T15:51:06.981Z,10.80
2022-12-12T15:56:27.921Z,10.90
2022-12-12T16:01:31.100Z,10.70
2022-12-12T16:06:37.427Z,11.13
2022-12-12T16:11:58.010Z,12.38
2022-12-12T16:17:20.360Z,18.92
2022-12-12T16:22:44.965Z,18.85
2022-12-12T16:27:49.593Z,13.38
2022-12-12T16:32:51.742Z,11.27
2022-12-12T16:37:54.098Z,11.07
2022-12-12T16:43:07.786Z,12.98
2022-12-12T16:48:25.898Z,17.65
2022-12-12T16:53:28.984Z,14.30
2022-12-12T16:58:32.336Z,13.75
2022-12-12T17:03:34.526Z,11.63
2022-12-12T17:08:38.741Z,12.65
2022-12-12T17:13:49.058Z,12.40
2022-12-12T17:18:52.598Z,20.13
2022-12-12T17:23:54.932Z,16.90
2022-12-12T17:28:57.586Z,18.65
2022-12-12T17:34:01.290Z,21.13
2022-12-12T17:39:03.928Z,19.45
2022-12-12T17:44:05.993Z,18.50
2022-12-12T17:49:08.502Z,13.48
2022-12-12T17:54:11.926Z,12.25
2022-12-12T17:59:14.275Z,12.80
2022-12-12T18:04:27.457Z,22.90
2022-12-12T18:09:30.378Z,14.25
2022-12-12T18:14:35.341Z,12.73
2022-12-12T18:19:37.710Z,14.80
2022-12-12T18:24:39.813Z,13.77
2022-12-12T18:29:43.130Z,19.63
2022-12-12T18:34:45.559Z,16.90
2022-12-12T18:39:47.955Z,20.55
2022-12-12T18:44:49.852Z,25.05
2022-12-12T18:49:56.268Z,26.95
2022-12-12T18:54:58.586Z,22.52
2022-12-12T19:00:00.841Z,22.98
2022-12-12T19:05:03.416Z,15.18
2022-12-12T19:10:08.748Z,18.08
2022-12-12T19:15:18.601Z,17.35
2022-12-12T19:20:24.854Z,16.95
2022-12-12T19:25:29.322Z,20.17
2022-12-12T19:30:33.059Z,20.20
2022-12-12T19:35:38.300Z,22.42
2022-12-12T19:40:40.474Z,19.30
2022-12-12T19:45:42.596Z,19.25
2022-12-12T19:50:44.585Z,18.23
2022-12-12T19:55:47.855Z,22.45
2022-12-12T20:00:50.616Z,26.10
2022-12-12T20:06:01.534Z,21.88
2022-12-12T20:11:04.478Z,20.92
2022-12-12T20:16:11.501Z,18.58
2022-12-12T20:21:30.052Z,21.08
2022-12-12T20:31:39.687Z,21.95
2022-12-12T20:36:43.377Z,21.52
2022-12-12T20:41:45.872Z,22.15
2022-12-12T20:46:47.982Z,26.48
2022-12-12T20:51:58.231Z,18.10
2022-12-12T20:57:01.107Z,18.83
2022-12-12T21:02:03.486Z,25.23
2022-12-12T21:07:05.607Z,24.17
2022-12-12T21:12:08.012Z,29.38
2022-12-12T21:17:10.057Z,29.90
2022-12-12T21:22:12.135Z,22.98
2022-12-12T21:27:13.997Z,17.27
2022-12-12T21:32:17.084Z,18.38
2022-12-12T21:37:19.263Z,19.27
2022-12-12T21:42:21.748Z,15.55
2022-12-12T21:47:23.955Z,18.83
2022-12-12T21:52:27.127Z,19.02
2022-12-12T21:57:29.588Z,18.17
2022-12-12T22:02:32.021Z,19.27
2022-12-12T22:07:35.389Z,20.25
2022-12-12T22:12:37.845Z,23.80
2022-12-12T22:17:41.407Z,22.70
2022-12-12T22:22:43.618Z,19.42
2022-12-12T22:27:45.779Z,22.15
2022-12-12T22:32:47.791Z,19.42
2022-12-12T22:37:49.988Z,18.02
2022-12-12T22:42:51.835Z,21.73
2022-12-12T22:47:54.089Z,17.10
2022-12-12T22:52:56.118Z,20.27
2022-12-12T22:57:58.619Z,18.02
2022-12-12T23:03:01.727Z,16.38
2022-12-12T23:08:03.989Z,14.82
2022-12-12T23:13:08.021Z,16.27
2022-12-12T23:18:10.366Z,14.27
2022-12-12T23:23:13.478Z,16.70
2022-12-12T23:28:15.907Z,15.70
2022-12-12T23:33:18.318Z,14.07
2022-12-12T23:38:20.746Z,15.57
2022-12-12T23:43:23.049Z,14.48
2022-12-12T23:48:25.279Z,13.40
2022-12-12T23:53:27.721Z,16.60
2022-12-12T23:58:29.903Z,16.75
